Archibald, LA

9:20 PM CDT on April 21, 2015 (GMT -0500)
Rayville Airport | | Change Station
CLOSE
Current Station
Personal Weather Station
Location: Rayville, LA
Elevation: 105 ft
Nearby Weather Stations

Elev 105 ft 32.48 °N, 91.77 °W | Updated 7 minutes ago

Mostly Cloudy
Mostly Cloudy
64.2 °F
Feels Like 64.2 °F
N
0.0
Wind Variable Wind from NNW
Gusts 3.0 mph

Today
High -- | Low -- °F
--% Chance of Precip.
Yesterday
High -- | Low -- °F
Precip. -- in
6:31 AM 7:40 PM
Waxing Crescent, 14% visible
Pressure 29.97 in
Visibility 10.0 miles
Clouds Few 4700 ft
Mostly Cloudy 10000 ft
Dew Point 53 °F
Humidity 67%
Rainfall 0.00 in
Snow Depth Not available.
UV 0 out of 12
Pollen 8.80 out of 12
Air Quality Not available.
Flu Activity Local Activity
METAR KMLU 220153Z 31004KT 10SM FEW047 BKN100 17/13 A2997 RMK AO2 RAE52 SLP147 P0000 T01670133

More Conditions Fewer Conditions

Pressure 29.97 in
Visibility 10.0 miles
Clouds Few 4700 ft
Mostly Cloudy 10000 ft
Dew Point 53 °F
Humidity 67%
Rainfall 0.00 in
Snow Depth Not available.
UV 0 out of 12
Pollen 8.80 out of 12
Air Quality Not available.
Flu Activity Local Activity
METAR KMLU 220153Z 31004KT 10SM FEW047 BKN100 17/13 A2997 RMK AO2 RAE52 SLP147 P0000 T01670133

More Conditions Fewer Conditions

10-Day Weather Forecast

Almanac

Astronomy

Apr. 21, 2015 Rise Set
Actual Time
Civil Twilight
Nautical Twilight
Astronomical Twilight
Moon
Length of Visible Light
Length of Day
Tomorrow will be .
, % of the Moon is Illuminated

Today's Extremes

State Highs State Lows

Community

WunderPhotos

Upload Photos

1,815,634 photos uploaded!

WunderBlogs® & News

Nearby

Air Quality

  Air Quality AQ Index Pollutant
Not available.

Snow Depth

Station Depth Elevation

Earthquake Activity

City Distance Mag. Time & Date
Minimum magnitude displayed is 2.5.

Coastal Water Temperatures

Place Temperature

Stations

Nearby Weather Stations

Station Location Temp. Windchill Dew Point Humidity Wind Precip. Elev Updated Type